Time;durP1;ratioP1;P1;durP2;ratioP2;P2;SDS_P1;SDS_P2;PMS_P1;PMS_P2;Temp;Humidity;BMP_temperature;BMP_pressure;BME280_temperature;BME280_humidity;BME280_pressure;Samples;Min_cycle;Max_cycle;Signal;HPM_P1;HPM_P2
2022/01/06 00:02:15;;;;;;;13.52;1.70;;;;;;;4.01;82.49;99186.91;5056143;28;20173;-88
2022/01/06 00:04:42;;;;;;;11.50;2.78;;;;;;;4.02;82.50;99185.16;5074402;28;20037;-87
2022/01/06 00:07:07;;;;;;;18.13;2.17;;;;;;;3.99;82.09;99186.16;5065359;28;20029;-86
2022/01/06 00:09:33;;;;;;;16.20;2.55;;;;;;;3.99;82.45;99186.16;5072464;28;20075;-86
2022/01/06 00:11:59;;;;;;;15.27;2.20;;;;;;;3.96;82.85;99188.09;5057926;28;20040;-86
2022/01/06 00:14:40;;;;;;;17.92;2.65;;;;;;;3.94;83.18;99177.81;5085752;28;20055;-86
2022/01/06 00:17:23;;;;;;;6.68;1.60;;;;;;;3.92;82.51;99171.88;5057675;28;20028;-86
2022/01/06 00:25:17;;;;;;;14.57;1.63;;;;;;;3.87;81.71;99199.81;5063605;28;20409;-86
2022/01/06 00:27:45;;;;;;;11.48;1.50;;;;;;;3.81;82.10;99219.16;5050505;28;20028;-87
2022/01/06 00:30:11;;;;;;;5.45;1.48;;;;;;;3.81;82.41;99215.72;5057421;28;20058;-86
2022/01/06 00:32:36;;;;;;;15.57;2.03;;;;;;;3.72;83.33;99261.16;5059347;28;20037;-87
2022/01/06 00:35:02;;;;;;;11.30;1.83;;;;;;;3.58;84.46;99243.75;5048508;28;20113;-86
2022/01/06 00:37:28;;;;;;;7.80;1.23;;;;;;;3.57;84.30;99242.09;5070753;28;20029;-85
2022/01/06 00:39:55;;;;;;;7.85;1.98;;;;;;;3.52;84.92;99225.97;5066289;28;20036;-87
2022/01/06 00:42:21;;;;;;;8.43;1.38;;;;;;;3.45;85.44;99234.16;5044051;28;20473;-87
2022/01/06 00:44:46;;;;;;;8.52;1.30;;;;;;;3.38;85.78;99231.09;5066946;28;20048;-87
2022/01/06 00:47:20;;;;;;;5.93;1.08;;;;;;;3.29;85.81;99237.56;5069933;28;20037;-87
2022/01/06 00:49:46;;;;;;;10.38;1.58;;;;;;;3.24;85.78;99246.53;5056789;28;20045;-87
2022/01/06 00:52:11;;;;;;;10.60;1.75;;;;;;;3.21;85.70;99244.09;5058304;28;20382;-88
2022/01/06 00:54:37;;;;;;;8.10;1.30;;;;;;;3.23;86.16;99237.09;5068521;28;20032;-88
2022/01/06 00:57:02;;;;;;;10.68;1.48;;;;;;;3.18;85.89;99239.06;5058751;28;20496;-88
2022/01/06 00:59:28;;;;;;;4.93;1.10;;;;;;;3.13;86.05;99258.28;5048529;28;20033;-87
2022/01/06 01:01:56;;;;;;;5.43;1.23;;;;;;;3.13;86.93;99250.53;5063873;28;20128;-88
2022/01/06 01:04:21;;;;;;;8.50;1.25;;;;;;;3.11;87.37;99264.47;5047338;28;20133;-87
2022/01/06 01:06:47;;;;;;;8.88;1.17;;;;;;;3.06;88.00;99256.94;5046176;28;20052;-87
2022/01/06 01:09:15;;;;;;;9.35;1.60;;;;;;;3.03;88.25;99251.91;5047213;28;20456;-88
2022/01/06 01:11:41;;;;;;;10.65;1.50;;;;;;;3.07;88.76;99262.94;5057722;28;20048;-87
2022/01/06 01:14:17;;;;;;;4.65;0.93;;;;;;;3.08;88.74;99262.88;5029822;28;20033;-88
2022/01/06 01:16:52;;;;;;;13.75;1.80;;;;;;;3.08;88.77;99262.88;5040850;28;20174;-87
2022/01/06 01:19:18;;;;;;;6.22;0.98;;;;;;;3.08;88.58;99272.41;5062193;28;20040;-88
2022/01/06 01:21:46;;;;;;;6.72;1.17;;;;;;;3.08;89.24;99267.22;5053616;28;20021;-87
2022/01/06 01:24:12;;;;;;;16.20;2.83;;;;;;;3.09;89.19;99277.50;5041224;28;20025;-87
2022/01/06 01:26:38;;;;;;;13.77;1.60;;;;;;;3.09;89.57;99276.66;5069708;28;20079;-88
2022/01/06 01:29:04;;;;;;;8.20;1.73;;;;;;;3.10;89.58;99279.16;5078569;28;20033;-87
2022/01/06 01:31:36;;;;;;;4.93;1.52;;;;;;;3.11;89.54;99285.19;5059097;28;20044;-88
2022/01/06 01:34:08;;;;;;;6.80;1.20;;;;;;;3.09;89.67;99276.66;5044231;28;20052;-87
2022/01/06 01:36:34;;;;;;;14.48;2.28;;;;;;;3.04;90.24;99279.50;5051855;28;20017;-87
2022/01/06 01:39:00;;;;;;;16.27;1.95;;;;;;;3.04;90.19;99279.50;5082051;28;20040;-88
2022/01/06 01:41:26;;;;;;;13.43;1.90;;;;;;;3.04;90.51;99287.28;5061927;28;20041;-86
2022/01/06 01:43:54;;;;;;;11.23;2.03;;;;;;;2.99;90.58;99275.47;5082704;28;20029;-87
2022/01/06 01:46:27;;;;;;;5.88;1.80;;;;;;;2.94;90.09;99278.31;5084123;28;20048;-87
2022/01/06 01:51:38;;;;;;;14.93;2.17;;;;;;;2.97;89.72;99295.44;5081988;28;20115;-88
2022/01/06 01:54:03;;;;;;;17.30;1.85;;;;;;;2.99;89.38;99286.66;5068582;28;20441;-87
2022/01/06 01:56:30;;;;;;;15.45;1.90;;;;;;;3.04;89.17;99287.28;5038113;28;20549;-87
2022/01/06 01:58:56;;;;;;;17.20;1.52;;;;;;;3.03;88.12;99295.09;5046831;28;20108;-86
2022/01/06 02:01:21;;;;;;;15.43;1.98;;;;;;;3.03;88.45;99301.13;5032383;28;20065;-87
2022/01/06 02:03:46;;;;;;;13.02;1.67;;;;;;;3.02;88.12;99311.56;5048253;28;20043;-88
2022/01/06 02:06:12;;;;;;;18.27;3.22;;;;;;;3.01;88.31;99302.13;5050906;28;20029;-88
2022/01/06 02:08:37;;;;;;;16.35;2.80;;;;;;;3.00;88.75;99297.84;5064213;28;20087;-87
2022/01/06 02:11:03;;;;;;;12.35;2.05;;;;;;;3.04;87.91;99300.22;5058742;28;20044;-88
2022/01/06 02:13:29;;;;;;;9.23;1.95;;;;;;;3.08;87.52;99309.50;5074236;28;20157;-87
2022/01/06 02:16:00;;;;;;;15.82;2.20;;;;;;;3.13;87.99;99315.28;5053887;28;20066;-87
2022/01/06 02:18:28;;;;;;;15.65;1.90;;;;;;;3.17;88.10;99320.28;5057623;28;20017;-87
2022/01/06 02:20:54;;;;;;;14.68;2.85;;;;;;;3.18;88.21;99319.38;5051921;28;20368;-87
2022/01/06 02:23:23;;;;;;;20.48;2.67;;;;;;;3.12;89.09;99329.13;5045124;28;20029;-88
2022/01/06 02:26:03;;;;;;;24.70;3.63;;;;;;;3.12;89.77;99329.13;5057735;28;20144;-87
2022/01/06 02:28:36;;;;;;;20.02;2.45;;;;;;;3.05;89.24;99322.59;5038179;28;20077;-87
2022/01/06 02:31:12;;;;;;;;;;;;;;;;;;;;;
2022/01/06 02:33:40;;;;;;;19.52;4.22;;;;;;;3.08;89.91;99325.03;5073289;28;20081;-88
2022/01/06 02:36:06;;;;;;;16.48;2.63;;;;;;;3.09;89.50;99333.63;5049454;28;20040;-87
2022/01/06 02:38:34;;;;;;;17.10;2.92;;;;;;;3.08;89.37;99327.63;5052696;28;20044;-86
2022/01/06 02:41:02;;;;;;;23.80;2.70;;;;;;;3.12;89.32;99338.66;5043020;28;20037;-86
2022/01/06 02:43:41;;;;;;;26.50;3.30;;;;;;;3.12;89.28;99336.06;5036115;28;20496;-87
2022/01/06 02:46:14;;;;;;;17.10;2.40;;;;;;;3.13;89.22;99350.69;5055975;28;20473;-86
2022/01/06 02:48:50;;;;;;;22.52;3.08;;;;;;;3.10;89.38;99358.63;5048507;28;20062;-85
2022/01/06 02:51:16;;;;;;;18.90;2.70;;;;;;;3.03;90.25;99368.44;5034551;28;20082;-86
2022/01/06 02:53:44;;;;;;;25.15;3.80;;;;;;;3.00;92.09;99360.81;5067899;28;20033;-86
2022/01/06 02:56:18;;;;;;;27.30;3.00;;;;;;;2.92;92.23;99353.44;5063693;28;20565;-87
2022/01/06 02:58:43;;;;;;;22.75;2.50;;;;;;;2.86;92.73;99369.31;5046234;28;20117;-88
2022/01/06 03:01:13;;;;;;;21.17;3.47;;;;;;;2.75;93.13;99375.94;5059049;28;20454;-86
2022/01/06 03:03:50;;;;;;;22.30;3.15;;;;;;;2.63;93.77;99378.22;5068296;28;20058;-87
2022/01/06 03:06:51;;;;;;;16.85;2.88;;;;;;;2.17;94.06;99395.94;5063666;28;20120;-87
2022/01/06 03:12:39;;;;;;;25.13;5.50;;;;;;;1.87;96.17;99412.88;5040283;28;20040;-87
2022/01/06 03:15:19;;;;;;;14.43;2.13;;;;;;;1.77;96.02;99445.19;5041687;28;20037;-86
2022/01/06 03:18:01;;;;;;;7.72;2.03;;;;;;;1.62;96.46;99408.78;5033447;28;20182;-87
2022/01/06 03:20:30;;;;;;;6.60;2.00;;;;;;;1.37;96.13;99421.09;5029520;28;20114;-86
2022/01/06 03:22:59;;;;;;;5.38;1.90;;;;;;;1.18;97.03;99437.38;5033840;28;20088;-86
2022/01/06 03:25:39;;;;;;;11.85;3.70;;;;;;;1.07;97.35;99441.31;5045193;28;20044;-86
2022/01/06 03:28:09;;;;;;;15.15;3.42;;;;;;;1.06;97.98;99431.91;5021835;28;20347;-86
2022/01/06 03:30:38;;;;;;;14.25;3.75;;;;;;;1.05;97.93;99427.66;5053159;28;20020;-88
2022/01/06 03:33:06;;;;;;;17.42;4.55;;;;;;;1.07;97.94;99441.31;5064170;28;20119;-88
2022/01/06 03:35:36;;;;;;;16.35;5.18;;;;;;;1.13;98.23;99444.50;5032802;28;20041;-87
2022/01/06 03:38:01;;;;;;;13.70;4.63;;;;;;;1.17;97.81;99460.69;5030773;28;20029;-87
2022/01/06 03:40:39;;;;;;;9.32;4.20;;;;;;;1.16;97.69;99488.25;5034081;28;20102;-87
2022/01/06 03:43:05;;;;;;;14.73;3.78;;;;;;;1.14;97.50;99471.97;5037798;28;20044;-86
2022/01/06 03:45:39;;;;;;;12.05;3.53;;;;;;;1.15;97.38;99471.09;5062434;28;20021;-86
2022/01/06 03:48:08;;;;;;;10.18;3.10;;;;;;;1.16;96.49;99490.00;5028251;28;20064;-87
2022/01/06 03:50:41;;;;;;;13.05;3.85;;;;;;;1.18;96.80;99494.19;5032371;28;20037;-88
2022/01/06 03:53:07;;;;;;;9.18;2.72;;;;;;;1.15;96.55;99494.31;5059635;28;20039;-87
2022/01/06 03:55:42;;;;;;;14.50;3.65;;;;;;;1.16;97.56;99503.75;5065652;28;20066;-87
2022/01/06 03:58:13;;;;;;;14.57;3.63;;;;;;;1.15;97.40;99512.41;5025294;28;20037;-87
2022/01/06 04:00:41;;;;;;;11.32;3.35;;;;;;;1.12;96.48;99512.53;5066130;28;20029;-87
2022/01/06 04:03:24;;;;;;;14.53;3.10;;;;;;;1.12;96.48;99517.69;5028410;28;20041;-87
2022/01/06 04:05:50;;;;;;;12.77;3.15;;;;;;;1.09;93.64;99538.47;5031442;28;20150;-87
2022/01/06 04:08:18;;;;;;;17.38;3.00;;;;;;;1.09;91.45;99525.53;5063099;28;20070;-87
2022/01/06 04:10:48;;;;;;;13.77;2.83;;;;;;;1.07;92.53;99545.41;5031668;28;20032;-87
2022/01/06 04:13:16;;;;;;;10.30;2.55;;;;;;;1.02;93.57;99552.50;5038053;28;20036;-87
2022/01/06 04:15:58;;;;;;;5.10;1.85;;;;;;;0.97;90.50;99541.53;5024638;28;20203;-87
2022/01/06 04:18:32;;;;;;;8.18;1.92;;;;;;;0.93;90.79;99565.78;5047033;28;20040;-87
2022/01/06 04:20:57;;;;;;;8.00;2.05;;;;;;;0.87;90.00;99579.75;5043119;28;20056;-87
2022/01/06 04:23:37;;;;;;;;;;;;;;;;;;;;;
2022/01/06 04:26:13;;;;;;;6.43;1.75;;;;;;;0.77;90.76;99593.06;5019142;28;20041;-85
2022/01/06 04:28:56;;;;;;;;;;;;;;;;;;;;;
2022/01/06 04:31:31;;;;;;;5.82;1.67;;;;;;;0.65;90.24;99586.63;5057304;28;20059;-86
2022/01/06 04:33:58;;;;;;;4.18;1.65;;;;;;;0.59;90.31;99603.16;5049176;28;20025;-86
2022/01/06 04:36:29;;;;;;;4.82;1.75;;;;;;;0.52;90.80;99596.59;5053055;28;20500;-87
2022/01/06 04:38:59;;;;;;;6.65;1.52;;;;;;;0.46;90.10;99607.94;5049338;28;20128;-87
2022/01/06 04:41:28;;;;;;;7.70;1.95;;;;;;;0.40;90.32;99609.91;5025435;28;20045;-87
2022/01/06 04:44:00;;;;;;;10.68;2.28;;;;;;;0.33;90.75;99598.97;5055820;28;20037;-86
2022/01/06 04:46:36;;;;;;;9.45;2.83;;;;;;;0.30;90.24;99613.69;5051211;28;20071;-86
2022/01/06 04:49:03;;;;;;;6.63;1.75;;;;;;;0.22;90.85;99614.84;5059973;28;20029;-87
2022/01/06 04:51:31;;;;;;;7.25;1.50;;;;;;;0.21;90.22;99625.19;5042068;28;20045;-87
2022/01/06 04:54:02;;;;;;;13.63;2.08;;;;;;;0.18;90.12;99636.44;5019752;28;20106;-87
2022/01/06 04:56:37;;;;;;;;;;;;;;;;;;;;;
2022/01/06 04:59:14;;;;;;;6.22;2.20;;;;;;;0.11;89.95;99635.00;5060796;28;20108;-86
2022/01/06 05:01:53;;;;;;;;;;;;;;;;;;;;;
2022/01/06 05:04:24;;;;;;;7.88;1.77;;;;;;;0.01;90.29;99643.94;5026491;28;20042;-87
2022/01/06 05:07:02;;;;;;;;;;;;;;;;;;;;;
2022/01/06 05:09:35;;;;;;;12.80;2.38;;;;;;;-0.03;90.47;99658.66;5041223;28;20030;-87
2022/01/06 05:12:01;;;;;;;4.03;1.33;;;;;;;-0.05;89.72;99662.16;5040469;28;20177;-86
2022/01/06 05:14:39;;;;;;;7.45;1.60;;;;;;;-0.06;90.22;99670.81;5059404;28;20071;-86
2022/01/06 05:17:08;;;;;;;12.77;2.67;;;;;;;-0.09;90.32;99673.47;5050239;28;20067;-87
2022/01/06 05:19:42;;;;;;;4.63;2.05;;;;;;;-0.13;90.12;99674.47;5035800;28;20055;-87
2022/01/06 05:22:08;;;;;;;7.30;1.45;;;;;;;-0.15;90.16;99679.69;5033391;28;20038;-87
2022/01/06 05:24:37;;;;;;;7.40;1.80;;;;;;;-0.18;89.68;99699.56;5055566;28;20070;-88
2022/01/06 05:27:10;;;;;;;9.63;2.10;;;;;;;-0.20;90.32;99707.31;5026378;28;20062;-87
2022/01/06 05:29:37;;;;;;;5.45;1.58;;;;;;;-0.21;90.03;99713.38;5036536;28;20105;-87
2022/01/06 05:32:07;;;;;;;3.67;1.52;;;;;;;-0.19;88.81;99723.63;5040284;28;20181;-86
2022/01/06 05:34:35;;;;;;;7.85;1.70;;;;;;;-0.23;89.87;99722.88;5066476;28;20032;-87
2022/01/06 05:37:01;;;;;;;3.35;1.42;;;;;;;-0.31;90.22;99730.84;5039555;28;20124;-87
2022/01/06 05:39:32;;;;;;;11.23;2.13;;;;;;;-0.35;89.94;99733.56;5055781;28;20139;-87
2022/01/06 05:42:13;;;;;;;;;;;;;;;;;;;;;
2022/01/06 05:44:54;;;;;;;;;;;;;;;;;;;;;
2022/01/06 05:47:23;;;;;;;8.90;2.15;;;;;;;-0.41;89.95;99762.91;5040693;28;20048;-85
2022/01/06 05:49:53;;;;;;;8.20;2.10;;;;;;;-0.43;89.79;99766.44;5037621;28;20461;-86
2022/01/06 05:52:26;;;;;;;16.25;1.80;;;;;;;-0.47;90.13;99762.28;5049638;28;20152;-85
2022/01/06 05:54:52;;;;;;;10.93;1.88;;;;;;;-0.48;89.95;99779.47;5027046;28;20021;-86
2022/01/06 05:57:40;;;;;;;11.50;1.85;;;;;;;-0.47;89.12;99775.16;5061401;28;20016;-87
2022/01/06 06:00:11;;;;;;;10.25;1.80;;;;;;;-0.50;89.65;99782.06;5039272;28;20070;-86
2022/01/06 06:02:36;;;;;;;8.65;1.90;;;;;;;-0.54;89.83;99795.94;5047644;28;20037;-89
2022/01/06 06:05:02;;;;;;;13.00;2.63;;;;;;;-0.56;90.12;99802.84;5053161;28;20044;-87
2022/01/06 06:07:28;;;;;;;9.60;1.92;;;;;;;-0.61;90.37;99799.56;5040324;28;20127;-87
2022/01/06 06:10:11;;;;;;;12.63;2.47;;;;;;;-0.64;90.60;99804.81;5040603;28;20031;-87
2022/01/06 06:12:39;;;;;;;7.30;1.98;;;;;;;-0.67;91.00;99807.47;5043558;28;20020;-87
2022/01/06 06:15:05;;;;;;;13.00;2.40;;;;;;;-0.67;91.11;99811.78;5067562;28;20037;-87
2022/01/06 06:17:31;;;;;;;8.82;2.38;;;;;;;-0.66;91.55;99816.06;5051100;28;20105;-88
2022/01/06 06:19:59;;;;;;;13.60;2.80;;;;;;;-0.71;91.35;99821.31;5049902;28;20099;-89
2022/01/06 06:23:00;;;;;;;14.63;2.65;;;;;;;-0.70;91.72;99842.75;5039742;28;20397;-90
2022/01/06 06:25:34;;;;;;;12.00;1.85;;;;;;;-0.68;90.88;99844.41;4995191;28;20033;-88
2022/01/06 06:28:21;;;;;;;9.98;2.42;;;;;;;-0.70;91.21;99841.03;5031628;28;20487;-88
2022/01/06 06:34:37;;;;;;;;;;;;;;;;;;;;;
2022/01/06 06:37:06;;;;;;;9.50;2.88;;;;;;;-0.80;92.09;99865.34;5056281;28;20135;-89
2022/01/06 06:39:35;;;;;;;8.40;2.85;;;;;;;-0.86;92.23;99879.19;5064135;28;20048;-87
2022/01/06 06:42:02;;;;;;;14.25;3.05;;;;;;;-0.93;92.44;99882.81;5050742;28;20025;-87
2022/01/06 06:44:34;;;;;;;10.55;3.03;;;;;;;-0.95;92.77;99889.75;5029070;28;20456;-88
2022/01/06 06:47:02;;;;;;;10.52;3.13;;;;;;;-0.94;93.21;99888.84;5026441;28;20103;-87
2022/01/06 06:49:49;;;;;;;10.77;2.42;;;;;;;-0.93;93.07;99908.56;5033405;28;20037;-89
2022/01/06 06:52:25;;;;;;;9.48;2.65;;;;;;;-0.98;93.29;99908.69;5049911;28;20039;-87
2022/01/06 06:54:53;;;;;;;12.18;2.55;;;;;;;-1.00;92.96;99918.19;5037384;28;20033;-87
2022/01/06 06:57:20;;;;;;;10.63;2.70;;;;;;;-1.00;93.94;99925.06;5032729;28;20032;-86
2022/01/06 06:59:48;;;;;;;5.72;2.60;;;;;;;-1.00;93.91;99919.91;5041533;28;20025;-85
2022/01/06 07:02:16;;;;;;;8.57;3.05;;;;;;;-0.95;93.27;99932.66;5026133;28;20451;-87
2022/01/06 07:04:44;;;;;;;9.15;2.22;;;;;;;-0.92;93.01;99937.72;5049724;28;20055;-87
2022/01/06 07:07:10;;;;;;;20.20;2.90;;;;;;;-0.95;92.89;99932.66;5070028;28;20083;-88
2022/01/06 07:09:35;;;;;;;16.58;2.92;;;;;;;-0.98;92.87;99943.88;5040514;28;20024;-82
2022/01/06 07:12:07;;;;;;;6.35;1.92;;;;;;;-1.07;92.81;99944.94;5048139;28;20036;-87
2022/01/06 07:14:35;;;;;;;9.10;1.85;;;;;;;-1.07;93.05;99952.66;5012235;28;20045;-86
2022/01/06 07:17:02;;;;;;;5.15;2.70;;;;;;;-1.07;93.41;99959.53;5032605;28;20489;-87
2022/01/06 07:19:28;;;;;;;7.15;1.80;;;;;;;-1.08;93.48;99979.25;5029846;28;20065;-87
2022/01/06 07:21:53;;;;;;;8.95;1.75;;;;;;;-1.08;93.33;99968.13;5045206;28;20013;-90
2022/01/06 07:27:47;;;;;;;9.95;2.35;;;;;;;-1.13;93.87;99980.25;5031585;28;20037;-88
2022/01/06 07:30:13;;;;;;;12.18;2.28;;;;;;;-1.12;94.20;99979.38;5013251;28;20033;-90
2022/01/06 07:32:50;;;;;;;6.32;1.80;;;;;;;-1.10;94.25;99990.47;5042210;28;20334;-89
2022/01/06 07:35:18;;;;;;;8.05;1.80;;;;;;;-1.06;94.31;99999.81;5061876;28;20709;-89
2022/01/06 07:38:05;;;;;;;9.27;1.90;;;;;;;-0.97;93.70;100012.44;5037860;28;20096;-88
2022/01/06 07:40:35;;;;;;;5.85;2.28;;;;;;;-0.89;93.23;100010.56;5055245;28;20037;-87
2022/01/06 07:43:01;;;;;;;4.80;1.92;;;;;;;-0.85;92.61;100006.19;5074005;28;20032;-88
2022/01/06 07:45:31;;;;;;;5.20;1.60;;;;;;;-0.77;92.67;100007.66;5048021;28;20450;-88
2022/01/06 07:48:03;;;;;;;6.95;1.83;;;;;;;-0.70;92.55;100012.63;5063030;28;20523;-89
2022/01/06 07:50:39;;;;;;;13.70;1.88;;;;;;;-0.66;92.41;100028.00;5028411;28;20095;-89
2022/01/06 07:53:04;;;;;;;8.90;2.58;;;;;;;-0.55;91.89;100040.59;5042418;28;20024;-87
2022/01/06 07:55:33;;;;;;;14.55;1.70;;;;;;;-0.49;91.35;100032.69;5035708;28;20048;-88
2022/01/06 07:58:16;;;;;;;9.50;1.60;;;;;;;-0.43;90.98;100037.69;5045858;28;20465;-89
2022/01/06 08:00:51;;;;;;;;;;;;;;;;;;;;;
2022/01/06 08:03:17;;;;;;;3.75;1.20;;;;;;;-0.29;90.58;100033.03;5055194;28;20337;-89
2022/01/06 08:05:45;;;;;;;5.75;1.65;;;;;;;-0.18;90.43;100045.63;5069258;28;20061;-88
2022/01/06 08:08:20;;;;;;;15.82;1.38;;;;;;;-0.15;90.15;100047.25;5044983;28;20041;-88
2022/01/06 08:10:55;;;;;;;7.60;2.42;;;;;;;-0.11;90.11;100036.84;5051733;28;20043;-89
2022/01/06 08:13:35;;;;;;;9.75;1.98;;;;;;;-0.08;90.16;100047.03;5030504;28;20092;-88
2022/01/06 08:16:03;;;;;;;4.97;1.45;;;;;;;-0.03;89.40;100054.69;5048768;28;20445;-86
2022/01/06 08:18:31;;;;;;;14.60;2.03;;;;;;;0.01;89.11;100063.19;5021390;28;20154;-89
2022/01/06 08:21:00;;;;;;;10.38;2.05;;;;;;;0.01;89.24;100069.16;5046681;28;20131;-89
2022/01/06 08:23:26;;;;;;;5.60;1.40;;;;;;;0.05;88.82;100077.66;5035820;28;20037;-88
2022/01/06 08:26:01;;;;;;;7.95;2.15;;;;;;;0.10;88.43;100079.22;5043923;28;20044;-88
2022/01/06 08:28:29;;;;;;;6.38;1.60;;;;;;;0.16;88.59;100086.78;5033662;28;20036;-89
2022/01/06 08:31:00;;;;;;;7.95;1.92;;;;;;;0.14;88.09;100090.28;5049891;28;20029;-88
2022/01/06 08:33:26;;;;;;;8.45;1.83;;;;;;;0.11;87.41;100091.25;5036507;28;20045;-87
2022/01/06 08:35:54;;;;;;;7.75;1.52;;;;;;;0.18;87.11;100100.47;5046102;28;20044;-89
2022/01/06 08:42:04;;;;;;;6.57;1.83;;;;;;;0.24;86.73;100109.78;4956879;28;20050;-88
2022/01/06 08:44:47;;;;;;;8.35;2.13;;;;;;;0.28;87.28;100111.38;4958742;28;20625;-88
2022/01/06 08:47:39;;;;;;;;;;;;;;;;;;;;;
2022/01/06 08:50:19;;;;;;;5.10;1.88;;;;;;;0.34;87.63;100121.53;4940389;28;20488;-89
2022/01/06 08:52:53;;;;;;;;;;;;;;;0.39;87.25;100129.13;4969458;28;20066;-89
2022/01/06 08:55:39;;;;;;;8.65;2.38;;;;;;;0.41;86.65;100123.06;4939354;28;19921;-89
2022/01/06 08:58:08;;;;;;;7.53;1.70;;;;;;;0.48;86.66;100129.75;4941478;28;20125;-88
2022/01/06 09:01:20;;;;;;;7.88;1.65;;;;;;;0.48;85.89;100147.78;4949900;28;20069;-88
2022/01/06 09:03:48;;;;;;;11.95;1.98;;;;;;;0.53;85.90;100134.75;4934228;28;20043;-88
2022/01/06 09:06:36;;;;;;;9.20;1.70;;;;;;;0.55;85.10;100135.53;4955159;28;20046;-90
2022/01/06 09:09:56;;;;;;;10.15;2.10;;;;;;;0.59;85.02;100147.47;4934890;28;20031;-89
2022/01/06 09:12:46;;;;;;;7.20;1.88;;;;;;;0.57;83.44;100138.94;4961747;28;20100;-88
2022/01/06 09:15:16;;;;;;;6.30;2.00;;;;;;;0.56;84.47;100139.84;5039278;28;20036;-88
2022/01/06 09:18:25;;;;;;;6.90;2.13;;;;;;;0.55;84.61;100145.03;5051087;28;20033;-89
2022/01/06 09:21:24;;;;;;;14.43;2.33;;;;;;;0.57;85.04;100138.09;5057535;28;20037;-88
2022/01/06 09:23:57;;;;;;;10.73;2.03;;;;;;;0.62;84.54;100144.81;5059079;28;20493;-88
2022/01/06 09:27:08;;;;;;;3.97;1.50;;;;;;;0.64;83.82;100148.19;5050359;28;20389;-89
2022/01/06 09:29:36;;;;;;;7.60;1.80;;;;;;;0.68;83.93;100149.81;4938794;29;20035;-88
2022/01/06 09:32:05;;;;;;;6.30;1.55;;;;;;;0.69;83.65;100156.66;4930536;29;20123;-86
2022/01/06 09:37:53;;;;;;;9.20;2.13;;;;;;;0.78;83.32;100160.72;4945302;28;20042;-86
2022/01/06 09:40:45;;;;;;;13.10;2.40;;;;;;;0.81;82.81;100178.66;4948012;28;20788;-87
2022/01/06 09:43:52;;;;;;;8.15;2.00;;;;;;;0.85;82.42;100182.00;4947091;28;20066;-89
2022/01/06 09:46:55;;;;;;;4.25;1.63;;;;;;;0.88;81.73;100176.75;4879134;29;20527;-89
2022/01/06 09:49:24;;;;;;;3.78;1.58;;;;;;;0.91;81.50;100179.25;4787599;29;20066;-87
2022/01/06 09:55:34;;;;;;;4.10;1.73;;;;;;;0.94;82.26;100185.19;4750184;30;20342;-87
2022/01/06 09:58:26;;;;;;;9.45;2.42;;;;;;;0.96;81.60;100190.28;4748572;30;20036;-89
2022/01/06 10:04:34;;;;;;;6.57;2.10;;;;;;;0.94;80.61;100197.25;4690082;30;20408;-89
2022/01/06 10:07:45;;;;;;;;;;;;;;;;;;;;;
2022/01/06 10:10:41;;;;;;;;;;;;;;;;;;;;;
2022/01/06 10:13:35;;;;;;;7.05;2.05;;;;;;;1.06;80.42;100191.72;4834660;29;20045;-88
2022/01/06 10:16:14;;;;;;;4.07;1.90;;;;;;;1.13;79.77;100198.38;4906171;28;20038;-88
2022/01/06 10:19:04;;;;;;;8.32;2.25;;;;;;;1.14;80.04;100202.66;4991669;28;20041;-88
2022/01/06 10:21:57;;;;;;;9.52;2.33;;;;;;;1.16;80.57;100206.06;4945520;28;20159;-87
2022/01/06 10:24:32;;;;;;;7.82;2.20;;;;;;;1.23;78.69;100203.28;4962491;28;20085;-89
2022/01/06 10:27:49;;;;;;;10.32;1.80;;;;;;;1.27;78.69;100200.56;4982410;28;20030;-88
2022/01/06 10:37:30;;;;;;;4.82;1.67;;;;;;;1.32;76.77;100215.91;4994592;28;20036;-89
2022/01/06 10:40:38;;;;;;;;;;;;;;;;;;;;;
2022/01/06 10:46:34;;;;;;;7.93;2.10;;;;;;;1.54;77.01;100219.53;4981477;28;20053;-88
2022/01/06 10:49:28;;;;;;;15.05;2.90;;;;;;;1.65;76.21;100222.63;4975215;28;20438;-89
2022/01/06 10:52:20;;;;;;;4.82;1.85;;;;;;;1.72;76.38;100215.53;5001761;28;20574;-90
2022/01/06 10:55:29;;;;;;;6.90;2.08;;;;;;;1.86;75.45;100231.47;4990257;28;20030;-88
2022/01/06 10:58:04;;;;;;;6.40;1.70;;;;;;;1.91;73.26;100231.31;4971716;28;20065;-87
2022/01/06 11:00:35;;;;;;;4.07;1.70;;;;;;;1.99;73.62;100229.31;4991278;28;20116;-88
2022/01/06 11:03:25;;;;;;;4.93;1.70;;;;;;;2.01;72.61;100227.53;4998066;28;20060;-89
2022/01/06 11:09:05;;;;;;;10.00;2.00;;;;;;;2.06;73.10;100233.38;5061792;28;20041;-89
2022/01/06 11:24:19;;;;;;;10.55;2.22;;;;;;;2.10;72.37;100252.22;4967245;23;20039;-71
2022/01/06 11:26:57;;;;;;;5.97;1.60;;;;;;;2.07;71.11;100242.81;4992312;28;20854;-72
2022/01/06 11:29:28;;;;;;;8.93;2.05;;;;;;;2.07;70.67;100244.56;5002467;28;20189;-71
2022/01/06 11:31:54;;;;;;;13.52;1.80;;;;;;;2.04;72.01;100258.47;4982961;28;20061;-72
2022/01/06 11:34:20;;;;;;;10.20;2.22;;;;;;;1.99;71.98;100255.16;5002260;28;20045;-72
2022/01/06 11:36:52;;;;;;;7.60;2.10;;;;;;;2.03;72.07;100263.66;5004071;28;20454;-71
2022/01/06 11:39:29;;;;;;;10.63;2.28;;;;;;;2.14;71.97;100267.59;5003562;28;20022;-71
2022/01/06 11:41:57;;;;;;;4.82;1.70;;;;;;;2.28;71.86;100266.31;4984052;28;20550;-69
2022/01/06 11:44:29;;;;;;;9.23;1.80;;;;;;;2.30;69.77;100265.38;5001586;28;20207;-72
2022/01/06 11:46:56;;;;;;;11.00;1.95;;;;;;;2.36;69.57;100266.88;4983849;28;20045;-68
2022/01/06 11:49:34;;;;;;;5.38;1.70;;;;;;;2.43;69.41;100268.38;4983240;28;20049;-71
2022/01/06 11:52:17;;;;;;;7.35;2.15;;;;;;;2.48;69.31;100268.22;5000920;28;20042;-70
2022/01/06 11:54:53;;;;;;;5.60;1.65;;;;;;;2.50;70.61;100276.78;5005230;28;20057;-74
2022/01/06 11:57:32;;;;;;;11.50;2.63;;;;;;;2.58;70.02;100269.59;5001880;28;20052;-73
2022/01/06 12:00:19;;;;;;;12.45;2.35;;;;;;;2.65;69.44;100258.13;5004070;28;20045;-69
2022/01/06 12:03:07;;;;;;;12.10;2.00;;;;;;;2.73;69.34;100261.28;5000730;28;20026;-68
2022/01/06 12:05:52;;;;;;;9.25;2.15;;;;;;;2.75;68.60;100254.34;4998294;28;20050;-69
2022/01/06 12:08:20;;;;;;;7.50;2.13;;;;;;;2.80;68.54;100265.34;4982396;28;20094;-73
2022/01/06 12:10:47;;;;;;;14.93;2.08;;;;;;;2.79;69.16;100262.84;5000907;28;20484;-72
2022/01/06 12:13:14;;;;;;;7.90;1.40;;;;;;;2.74;69.12;100262.13;5000383;28;20042;-70
2022/01/06 12:15:52;;;;;;;10.18;1.85;;;;;;;2.73;68.68;100260.44;4996850;28;20057;-69
2022/01/06 12:18:20;;;;;;;7.47;2.03;;;;;;;2.63;69.63;100263.38;4983074;28;20099;-71
2022/01/06 12:20:47;;;;;;;8.18;1.73;;;;;;;2.71;69.86;100250.16;4999377;28;20798;-68
2022/01/06 12:23:12;;;;;;;7.15;2.08;;;;;;;2.69;70.39;100264.06;5000473;28;20037;-70
2022/01/06 12:25:38;;;;;;;13.80;2.53;;;;;;;2.65;69.54;100258.97;5002847;28;20045;-69
2022/01/06 12:28:08;;;;;;;8.77;3.20;;;;;;;2.58;70.05;100265.25;5012252;28;20519;-68
2022/01/06 12:30:35;;;;;;;10.00;2.03;;;;;;;2.57;69.91;100268.75;5002365;28;20030;-69
2022/01/06 12:33:03;;;;;;;5.75;1.95;;;;;;;2.61;70.58;100259.16;4982920;28;20053;-69
2022/01/06 12:35:52;;;;;;;14.15;2.97;;;;;;;2.60;69.50;100267.81;5002411;28;20041;-72
2022/01/06 12:38:26;;;;;;;9.20;3.03;;;;;;;2.59;70.44;100273.88;5005555;28;20037;-73
2022/01/06 12:40:51;;;;;;;8.23;2.30;;;;;;;2.60;69.58;100267.81;4977273;28;20026;-71
2022/01/06 12:43:19;;;;;;;9.50;2.67;;;;;;;2.63;70.24;100268.56;4990514;28;20128;-70
2022/01/06 12:45:46;;;;;;;10.65;2.30;;;;;;;2.63;70.52;100265.97;4991381;28;20034;-69
2022/01/06 12:48:13;;;;;;;16.73;2.83;;;;;;;2.65;70.29;100264.16;5009884;28;20052;-69
2022/01/06 12:50:49;;;;;;;7.75;1.75;;;;;;;2.67;70.43;100264.13;4991762;28;20068;-70
2022/01/06 12:53:30;;;;;;;7.78;1.98;;;;;;;2.72;70.13;100276.91;4983212;28;20044;-70
2022/01/06 12:55:56;;;;;;;12.73;1.60;;;;;;;2.69;69.98;100264.88;5007840;28;20038;-70
2022/01/06 12:58:25;;;;;;;8.55;1.60;;;;;;;2.73;69.67;100269.06;5007636;28;20128;-69
2022/01/06 13:00:55;;;;;;;7.22;1.77;;;;;;;2.74;68.57;100272.50;4989008;28;20018;-71
2022/01/06 13:03:35;;;;;;;5.97;1.90;;;;;;;2.70;67.72;100276.94;4989248;28;20029;-72
2022/01/06 13:06:12;;;;;;;5.43;2.03;;;;;;;2.71;68.53;100286.41;5004951;28;20026;-71
2022/01/06 13:08:54;;;;;;;9.18;2.10;;;;;;;2.75;67.62;100279.38;5006705;28;20102;-70
2022/01/06 13:11:20;;;;;;;3.42;1.23;;;;;;;2.77;67.68;100287.91;5001630;28;20434;-70
2022/01/06 13:13:51;;;;;;;10.35;1.38;;;;;;;2.73;67.61;100286.34;5013594;28;20416;-70
2022/01/06 13:16:25;;;;;;;7.38;1.35;;;;;;;2.72;68.17;100282.91;5007422;28;20042;-70
2022/01/06 13:19:02;;;;;;;3.45;1.20;;;;;;;2.77;68.10;100285.34;4987173;28;20105;-69
2022/01/06 13:21:38;;;;;;;8.93;1.90;;;;;;;2.89;67.57;100282.31;5002152;28;20036;-69